createdAt,value
2023-02-16T00:00:14.695Z,6.36
2023-02-16T00:01:14.677Z,6.40
2023-02-16T00:02:14.727Z,6.43
2023-02-16T00:03:14.709Z,6.46
2023-02-16T00:04:14.646Z,6.48
2023-02-16T00:05:14.666Z,6.47
2023-02-16T00:06:14.629Z,6.41
2023-02-16T00:07:14.616Z,6.35
2023-02-16T00:08:14.607Z,6.35
2023-02-16T00:09:14.620Z,6.30
2023-02-16T00:10:14.582Z,6.30
2023-02-16T00:11:14.577Z,6.33
2023-02-16T00:12:14.560Z,6.40
2023-02-16T00:13:14.556Z,6.40
2023-02-16T00:14:14.545Z,6.38
2023-02-16T00:15:14.558Z,6.33
2023-02-16T00:16:14.592Z,6.30
2023-02-16T00:17:14.509Z,6.28
2023-02-16T00:18:14.498Z,6.28
2023-02-16T00:19:14.510Z,6.25
2023-02-16T00:20:14.478Z,6.22
2023-02-16T00:21:14.457Z,6.19
2023-02-16T00:22:14.449Z,6.18
2023-02-16T00:23:14.447Z,6.19
2023-02-16T00:24:14.430Z,6.21
2023-02-16T00:25:14.442Z,6.21
2023-02-16T00:26:14.408Z,6.19
2023-02-16T00:27:14.396Z,6.19
2023-02-16T00:28:14.388Z,6.18
2023-02-16T00:29:14.397Z,6.18
2023-02-16T00:30:14.436Z,6.14
2023-02-16T00:31:14.409Z,6.10
2023-02-16T00:32:14.538Z,6.09
2023-02-16T00:33:14.340Z,6.09
2023-02-16T00:34:14.351Z,6.07
2023-02-16T00:35:14.331Z,6.06
2023-02-16T00:36:14.312Z,6.07
2023-02-16T00:37:14.336Z,6.06
2023-02-16T00:38:14.273Z,6.03
2023-02-16T00:39:14.278Z,5.98
2023-02-16T00:40:14.282Z,5.92
2023-02-16T00:41:14.251Z,5.91
2023-02-16T00:42:14.318Z,5.89
2023-02-16T00:43:22.027Z,5.85
2023-02-16T00:44:14.986Z,5.78
2023-02-16T00:45:14.201Z,5.75
2023-02-16T00:46:14.270Z,5.73
2023-02-16T00:47:14.198Z,5.68
2023-02-16T00:48:14.173Z,5.71
2023-02-16T00:49:14.172Z,5.73
2023-02-16T00:50:14.188Z,5.73
2023-02-16T00:51:25.603Z,5.71
2023-02-16T00:52:15.128Z,5.67
2023-02-16T00:53:14.121Z,5.67
2023-02-16T00:54:14.128Z,5.66
2023-02-16T00:55:14.108Z,5.64
2023-02-16T00:56:14.129Z,5.60
2023-02-16T00:57:14.095Z,5.56
2023-02-16T00:58:14.087Z,5.53
2023-02-16T00:59:14.058Z,5.49
2023-02-16T01:00:14.045Z,5.40
2023-02-16T01:01:14.080Z,5.35
2023-02-16T01:02:14.025Z,5.30
2023-02-16T01:03:14.024Z,5.27
2023-02-16T01:04:14.069Z,5.23
2023-02-16T01:05:13.976Z,5.25
2023-02-16T01:06:13.975Z,5.28
2023-02-16T01:07:13.971Z,5.28
2023-02-16T01:08:13.954Z,5.31
2023-02-16T01:09:13.943Z,5.35
2023-02-16T01:10:13.955Z,5.40
2023-02-16T01:11:13.931Z,5.40
2023-02-16T01:12:13.923Z,5.40
2023-02-16T01:13:14.842Z,5.41
2023-02-16T01:14:13.874Z,5.38
2023-02-16T01:15:13.908Z,5.40
2023-02-16T01:16:13.952Z,5.34
2023-02-16T01:17:13.852Z,5.34
2023-02-16T01:18:13.835Z,5.31
2023-02-16T01:19:13.863Z,5.28
2023-02-16T01:20:13.836Z,5.27
2023-02-16T01:21:13.815Z,5.27
2023-02-16T01:22:13.795Z,5.22
2023-02-16T01:23:13.792Z,5.20
2023-02-16T01:24:13.782Z,5.19
2023-02-16T01:25:13.784Z,5.14
2023-02-16T01:26:13.752Z,5.12
2023-02-16T01:27:13.756Z,5.09
2023-02-16T01:28:13.724Z,5.02
2023-02-16T01:29:13.742Z,4.96
2023-02-16T01:30:13.770Z,4.95
2023-02-16T01:31:13.785Z,4.86
2023-02-16T01:32:13.851Z,4.83
2023-02-16T01:33:13.681Z,4.80
2023-02-16T01:34:13.662Z,4.77
2023-02-16T01:35:13.663Z,4.76
2023-02-16T01:36:13.640Z,4.73
2023-02-16T01:37:13.633Z,4.69
2023-02-16T01:38:13.646Z,4.65
2023-02-16T01:39:13.621Z,4.62
2023-02-16T01:40:13.592Z,4.62
2023-02-16T01:41:13.596Z,4.61
2023-02-16T01:42:13.590Z,4.61
2023-02-16T01:43:13.594Z,4.62
2023-02-16T01:44:13.567Z,4.61
2023-02-16T01:45:13.549Z,4.62
2023-02-16T01:46:13.573Z,4.65
2023-02-16T01:47:13.524Z,4.62
2023-02-16T01:48:13.535Z,4.61
2023-02-16T01:49:13.515Z,4.58
2023-02-16T01:50:13.490Z,4.57
2023-02-16T01:51:13.475Z,4.58
2023-02-16T01:52:13.468Z,4.55
2023-02-16T01:53:13.485Z,4.62
2023-02-16T01:54:13.471Z,4.62
2023-02-16T01:55:13.450Z,4.61
2023-02-16T01:56:13.417Z,4.58
2023-02-16T01:57:13.417Z,4.55
2023-02-16T01:58:13.406Z,4.58
2023-02-16T01:59:13.428Z,4.51
2023-02-16T02:00:13.397Z,4.44
2023-02-16T02:01:13.379Z,4.46
2023-02-16T02:02:13.391Z,4.44
2023-02-16T02:03:13.347Z,4.43
2023-02-16T02:04:13.361Z,4.40
2023-02-16T02:05:13.326Z,4.37
2023-02-16T02:06:13.324Z,4.34
2023-02-16T02:07:13.316Z,4.34
2023-02-16T02:08:13.304Z,4.28
2023-02-16T02:09:13.299Z,4.32
2023-02-16T02:10:13.288Z,4.33
2023-02-16T02:11:13.274Z,4.32
2023-02-16T02:12:13.249Z,4.32
2023-02-16T02:13:13.245Z,4.33
2023-02-16T02:14:13.232Z,4.33
2023-02-16T02:15:13.253Z,4.32
2023-02-16T02:16:13.254Z,4.34
2023-02-16T02:17:13.197Z,4.34
2023-02-16T02:18:13.184Z,4.33
2023-02-16T02:19:13.191Z,4.34
2023-02-16T02:20:13.177Z,4.33
2023-02-16T02:21:13.147Z,4.28
2023-02-16T02:22:13.146Z,4.26
2023-02-16T02:23:13.164Z,4.25
2023-02-16T02:24:15.930Z,4.21
2023-02-16T02:25:13.205Z,4.18
2023-02-16T02:26:13.099Z,4.16
2023-02-16T02:27:13.093Z,4.16
2023-02-16T02:28:13.074Z,4.18
2023-02-16T02:29:13.077Z,4.16
2023-02-16T02:30:13.101Z,4.15
2023-02-16T02:31:13.193Z,4.18
2023-02-16T02:32:13.141Z,4.19
2023-02-16T02:33:13.026Z,4.22
2023-02-16T02:34:13.011Z,4.24
2023-02-16T02:35:13.004Z,4.25
2023-02-16T02:36:12.993Z,4.28
2023-02-16T02:37:13.013Z,4.32
2023-02-16T02:38:12.991Z,4.33
2023-02-16T02:39:12.976Z,4.32
2023-02-16T02:40:12.950Z,4.29
2023-02-16T02:41:12.980Z,4.29
2023-02-16T02:42:12.952Z,4.28
2023-02-16T02:43:12.910Z,4.25
2023-02-16T02:44:12.919Z,4.26
2023-02-16T02:45:12.901Z,4.24
2023-02-16T02:46:12.997Z,4.19
2023-02-16T02:47:12.939Z,4.16
2023-02-16T02:48:12.866Z,4.12
2023-02-16T02:49:12.847Z,4.10
2023-02-16T02:50:12.862Z,4.10
2023-02-16T02:51:12.856Z,4.07
2023-02-16T02:52:12.839Z,4.06
2023-02-16T02:53:12.827Z,4.04
2023-02-16T02:54:12.799Z,4.00
2023-02-16T02:55:12.791Z,3.98
2023-02-16T02:56:12.777Z,3.97
2023-02-16T02:57:12.774Z,3.94
2023-02-16T02:58:12.786Z,3.96
2023-02-16T02:59:12.748Z,3.92
2023-02-16T03:00:12.727Z,3.88
2023-02-16T03:01:12.748Z,3.85
2023-02-16T03:02:12.754Z,3.88
2023-02-16T03:03:12.726Z,3.89
2023-02-16T03:04:12.706Z,3.90
2023-02-16T03:05:12.689Z,3.90
2023-02-16T03:06:12.666Z,3.89
2023-02-16T03:07:12.666Z,3.88
2023-02-16T03:08:12.639Z,3.86
2023-02-16T03:09:12.654Z,3.90
2023-02-16T03:10:12.626Z,3.90
2023-02-16T03:11:12.607Z,3.92
2023-02-16T03:12:12.598Z,3.90
2023-02-16T03:13:12.588Z,3.96
2023-02-16T03:14:12.605Z,3.97
2023-02-16T03:15:12.575Z,3.98
2023-02-16T03:16:12.620Z,3.97
2023-02-16T03:17:12.545Z,3.94
2023-02-16T03:18:12.543Z,3.96
2023-02-16T03:19:12.568Z,3.94
2023-02-16T03:20:12.525Z,3.92
2023-02-16T03:21:12.497Z,3.96
2023-02-16T03:22:12.485Z,3.97
2023-02-16T03:23:12.479Z,3.90
2023-02-16T03:24:12.493Z,3.88
2023-02-16T03:25:12.455Z,3.85
2023-02-16T03:26:12.465Z,3.82
2023-02-16T03:27:12.445Z,3.79
2023-02-16T03:28:12.425Z,3.79
2023-02-16T03:29:12.443Z,3.79
2023-02-16T03:30:12.510Z,3.78
2023-02-16T03:31:12.550Z,3.78
2023-02-16T03:32:12.435Z,3.78
2023-02-16T03:33:12.362Z,3.82
2023-02-16T03:34:12.392Z,3.82
2023-02-16T03:35:12.387Z,3.80
2023-02-16T03:36:12.349Z,3.85
2023-02-16T03:37:12.328Z,3.83
2023-02-16T03:38:12.341Z,3.85
2023-02-16T03:39:12.321Z,3.85
2023-02-16T03:40:12.293Z,3.89
2023-02-16T03:41:12.284Z,3.96
2023-02-16T03:42:12.280Z,3.96
2023-02-16T03:43:12.259Z,3.97
2023-02-16T03:44:12.276Z,3.96
2023-02-16T03:45:12.255Z,3.96
2023-02-16T03:46:12.271Z,3.97
2023-02-16T03:47:12.213Z,3.97
2023-02-16T03:48:12.209Z,4.00
2023-02-16T03:49:12.193Z,4.03
2023-02-16T03:50:12.208Z,4.07
2023-02-16T03:51:12.173Z,4.03
2023-02-16T03:52:12.159Z,4.03
2023-02-16T03:53:12.159Z,4.04
2023-02-16T03:54:12.142Z,4.03
2023-02-16T03:55:12.143Z,4.01
2023-02-16T03:56:12.111Z,3.97
2023-02-16T03:57:12.105Z,4.01
2023-02-16T03:58:12.091Z,4.03
2023-02-16T03:59:12.084Z,4.01
2023-02-16T04:00:12.101Z,4.00
2023-02-16T04:01:12.069Z,4.00
2023-02-16T04:02:12.188Z,3.97
2023-02-16T04:03:12.038Z,3.98
2023-02-16T04:04:12.095Z,3.96
2023-02-16T04:05:12.050Z,3.92
2023-02-16T04:06:12.018Z,3.94
2023-02-16T04:07:11.999Z,3.96
2023-02-16T04:08:11.996Z,3.94
2023-02-16T04:09:11.991Z,3.94
2023-02-16T04:10:11.994Z,3.96
2023-02-16T04:11:11.988Z,3.98
2023-02-16T04:12:11.948Z,4.00
2023-02-16T04:13:11.936Z,3.97
2023-02-16T04:14:11.935Z,3.98
2023-02-16T04:15:11.915Z,3.98
2023-02-16T04:16:11.944Z,3.94
2023-02-16T04:17:11.919Z,3.92
2023-02-16T04:18:11.885Z,3.94
2023-02-16T04:19:11.868Z,3.89
2023-02-16T04:20:11.882Z,3.85
2023-02-16T04:21:11.863Z,3.85
2023-02-16T04:22:11.869Z,3.85
2023-02-16T04:23:11.828Z,3.89
2023-02-16T04:24:11.810Z,3.89
2023-02-16T04:25:11.835Z,3.82
2023-02-16T04:26:11.838Z,3.83
2023-02-16T04:27:11.785Z,3.85
2023-02-16T04:28:11.785Z,3.85
2023-02-16T04:29:11.758Z,3.88
2023-02-16T04:30:11.792Z,3.88
2023-02-16T04:31:11.837Z,3.92
2023-02-16T04:32:11.940Z,3.98
2023-02-16T04:33:11.739Z,3.98
2023-02-16T04:34:11.704Z,4.00
2023-02-16T04:35:11.710Z,4.01
2023-02-16T04:36:11.676Z,3.96
2023-02-16T04:37:11.673Z,3.94
2023-02-16T04:38:11.684Z,3.88
2023-02-16T04:39:11.654Z,3.82
2023-02-16T04:40:11.642Z,3.82
2023-02-16T04:41:11.624Z,3.80
2023-02-16T04:42:14.389Z,3.82
2023-02-16T04:43:11.633Z,3.83
2023-02-16T04:44:11.592Z,3.85
2023-02-16T04:45:11.590Z,3.82
2023-02-16T04:46:11.647Z,3.76
2023-02-16T04:47:11.567Z,3.71
2023-02-16T04:48:11.575Z,3.71
2023-02-16T04:49:11.547Z,3.70
2023-02-16T04:50:11.531Z,3.62
2023-02-16T04:51:11.528Z,3.57
2023-02-16T04:52:11.502Z,3.54
2023-02-16T04:53:11.493Z,3.54
2023-02-16T04:54:11.502Z,3.54
2023-02-16T04:55:11.509Z,3.58
2023-02-16T04:56:11.462Z,3.60
2023-02-16T04:57:11.457Z,3.61
2023-02-16T04:58:11.441Z,3.60
2023-02-16T04:59:11.451Z,3.64
2023-02-16T05:00:11.428Z,3.65
2023-02-16T05:01:11.438Z,3.62
2023-02-16T05:02:11.432Z,3.61
2023-02-16T05:03:11.404Z,3.58
2023-02-16T05:04:11.441Z,3.60
2023-02-16T05:05:11.373Z,3.60
2023-02-16T05:06:11.377Z,3.64
2023-02-16T05:07:11.402Z,3.70
2023-02-16T05:08:11.350Z,3.72
2023-02-16T05:09:11.320Z,3.70
2023-02-16T05:10:11.306Z,3.65
2023-02-16T05:11:11.314Z,3.65
2023-02-16T05:12:11.316Z,3.67
2023-02-16T05:13:11.283Z,3.62
2023-02-16T05:14:11.263Z,3.58
2023-02-16T05:15:11.261Z,3.60
2023-02-16T05:16:11.280Z,3.61
2023-02-16T05:17:11.261Z,3.64
2023-02-16T05:18:11.231Z,3.67
2023-02-16T05:19:11.238Z,3.70
2023-02-16T05:20:11.199Z,3.71
2023-02-16T05:21:11.194Z,3.71
2023-02-16T05:22:11.174Z,3.67
2023-02-16T05:23:11.173Z,3.62
2023-02-16T05:24:11.192Z,3.62
2023-02-16T05:25:11.191Z,3.62
2023-02-16T05:26:11.161Z,3.64
2023-02-16T05:27:11.144Z,3.67
2023-02-16T05:28:11.198Z,3.64
2023-02-16T05:29:11.111Z,3.65
2023-02-16T05:30:11.166Z,3.67
2023-02-16T05:31:11.191Z,3.67
2023-02-16T05:32:11.175Z,3.70
2023-02-16T05:33:11.065Z,3.72
2023-02-16T05:34:11.088Z,3.71
2023-02-16T05:35:11.074Z,3.71
2023-02-16T05:36:11.035Z,3.75
2023-02-16T05:37:11.023Z,3.80
2023-02-16T05:38:11.018Z,3.86
2023-02-16T05:39:11.001Z,3.89
2023-02-16T05:40:10.994Z,3.89
2023-02-16T05:41:11.015Z,3.92
2023-02-16T05:42:10.978Z,3.94
2023-02-16T05:43:10.954Z,3.96
2023-02-16T05:44:10.964Z,3.94
2023-02-16T05:45:10.947Z,3.92
2023-02-16T05:46:10.982Z,3.90
2023-02-16T05:47:10.937Z,3.86
2023-02-16T05:48:10.907Z,3.88
2023-02-16T05:49:10.909Z,3.85
2023-02-16T05:50:10.888Z,3.82
2023-02-16T05:51:10.900Z,3.80
2023-02-16T05:52:10.886Z,3.78
2023-02-16T05:53:10.888Z,3.76
2023-02-16T05:54:10.843Z,3.76
2023-02-16T05:55:10.828Z,3.75
2023-02-16T05:56:10.818Z,3.76
2023-02-16T05:57:10.838Z,3.76
2023-02-16T05:58:10.810Z,3.75
2023-02-16T05:59:10.788Z,3.71
2023-02-16T06:00:10.777Z,3.72
2023-02-16T06:01:10.768Z,3.71
2023-02-16T06:02:10.797Z,3.71
2023-02-16T06:03:10.738Z,3.70
2023-02-16T06:04:10.734Z,3.71
2023-02-16T06:05:10.729Z,3.68
2023-02-16T06:06:10.722Z,3.67
2023-02-16T06:07:12.517Z,3.67
2023-02-16T06:08:10.689Z,3.71
2023-02-16T06:09:10.699Z,3.70
2023-02-16T06:10:10.669Z,3.68
2023-02-16T06:11:10.681Z,3.65
2023-02-16T06:12:10.662Z,3.61
2023-02-16T06:13:10.666Z,3.61
2023-02-16T06:14:10.644Z,3.60
2023-02-16T06:15:10.622Z,3.57
2023-02-16T06:16:10.686Z,3.61
2023-02-16T06:17:10.628Z,3.62
2023-02-16T06:18:10.589Z,3.62
2023-02-16T06:19:10.600Z,3.60
2023-02-16T06:20:10.589Z,3.64
2023-02-16T06:21:10.550Z,3.67
2023-02-16T06:22:10.531Z,3.68
2023-02-16T06:23:10.529Z,3.71
2023-02-16T06:24:10.512Z,3.72
2023-02-16T06:25:10.513Z,3.75
2023-02-16T06:26:10.523Z,3.78
2023-02-16T06:27:10.490Z,3.79
2023-02-16T06:28:10.468Z,3.80
2023-02-16T06:29:10.473Z,3.86
2023-02-16T06:30:10.526Z,3.90
2023-02-16T06:31:10.570Z,3.92
2023-02-16T06:32:10.519Z,3.97
2023-02-16T06:33:10.428Z,4.01
2023-02-16T06:34:10.430Z,4.06
2023-02-16T06:35:10.407Z,4.07
2023-02-16T06:36:10.396Z,4.10
2023-02-16T06:37:10.399Z,4.10
2023-02-16T06:38:10.385Z,4.16
2023-02-16T06:39:10.349Z,4.21
2023-02-16T06:40:10.350Z,4.22
2023-02-16T06:41:10.368Z,4.26
2023-02-16T06:42:10.345Z,4.32
2023-02-16T06:43:10.314Z,4.43
2023-02-16T06:44:18.097Z,4.50
2023-02-16T06:45:10.291Z,4.55
2023-02-16T06:46:10.300Z,4.58
2023-02-16T06:47:10.273Z,4.61
2023-02-16T06:48:10.276Z,4.70
2023-02-16T06:49:10.242Z,4.75
2023-02-16T06:50:10.244Z,4.83
2023-02-16T06:51:10.221Z,4.86
2023-02-16T06:52:10.236Z,4.91
2023-02-16T06:53:10.196Z,4.95
2023-02-16T06:54:10.190Z,4.98
2023-02-16T06:55:10.172Z,5.01
2023-02-16T06:56:10.161Z,5.05
2023-02-16T06:57:10.191Z,5.04
2023-02-16T06:58:10.142Z,5.09
2023-02-16T06:59:10.131Z,5.12
2023-02-16T07:00:10.136Z,5.13
2023-02-16T07:01:10.186Z,5.17
2023-02-16T07:02:10.118Z,5.22
2023-02-16T07:03:10.191Z,5.25
2023-02-16T07:04:10.088Z,5.30
2023-02-16T07:05:10.063Z,5.35
2023-02-16T07:06:10.054Z,5.41
2023-02-16T07:07:10.064Z,5.43
2023-02-16T07:08:10.032Z,5.46
2023-02-16T07:09:11.635Z,5.49
2023-02-16T07:10:10.012Z,5.52
2023-02-16T07:11:09.993Z,5.55
2023-02-16T07:12:10.019Z,5.59
2023-02-16T07:13:10.021Z,5.63
2023-02-16T07:14:09.962Z,5.64
2023-02-16T07:15:09.950Z,5.67
2023-02-16T07:16:10.009Z,5.68
2023-02-16T07:17:09.952Z,5.71
2023-02-16T07:18:09.925Z,5.73
2023-02-16T07:19:09.913Z,5.74
2023-02-16T07:20:09.901Z,5.77
2023-02-16T07:21:09.894Z,5.81
2023-02-16T07:22:09.883Z,5.82
2023-02-16T07:23:09.890Z,5.85
2023-02-16T07:24:09.863Z,5.89
2023-02-16T07:25:09.842Z,5.91
2023-02-16T07:26:09.845Z,5.93
2023-02-16T07:27:09.823Z,5.98
2023-02-16T07:28:09.814Z,6.01
2023-02-16T07:29:09.823Z,6.06
2023-02-16T07:30:09.815Z,6.09
2023-02-16T07:31:09.914Z,6.11
2023-02-16T07:32:09.870Z,6.14
2023-02-16T07:33:09.751Z,6.19
2023-02-16T07:34:09.770Z,6.21
2023-02-16T07:35:09.732Z,6.28
2023-02-16T07:36:09.728Z,6.30
2023-02-16T07:37:09.711Z,6.35
2023-02-16T07:38:09.704Z,6.38
2023-02-16T07:39:09.711Z,6.41
2023-02-16T07:40:09.681Z,6.44
2023-02-16T07:41:10.479Z,6.46
2023-02-16T07:42:09.672Z,6.46
2023-02-16T07:43:09.652Z,6.48
2023-02-16T07:44:09.640Z,6.53
2023-02-16T07:45:09.660Z,6.62
2023-02-16T07:46:09.768Z,6.66
2023-02-16T07:47:09.603Z,6.68
2023-02-16T07:48:09.603Z,6.69
2023-02-16T07:49:09.576Z,6.73
2023-02-16T07:50:09.587Z,6.80
2023-02-16T07:51:09.580Z,6.83
2023-02-16T07:52:09.550Z,6.87
2023-02-16T07:53:11.182Z,6.89
2023-02-16T07:54:09.537Z,6.90
2023-02-16T07:55:09.517Z,6.89
2023-02-16T07:56:09.505Z,6.91
2023-02-16T07:57:09.519Z,6.94
2023-02-16T07:58:09.519Z,6.94
2023-02-16T07:59:09.504Z,6.95
2023-02-16T08:00:09.481Z,6.98
2023-02-16T08:01:09.533Z,6.99
2023-02-16T08:02:09.554Z,6.99
2023-02-16T08:03:09.552Z,7.01
2023-02-16T08:04:09.418Z,7.02
2023-02-16T08:05:09.405Z,7.01
2023-02-16T08:06:09.417Z,7.04
2023-02-16T08:07:09.383Z,7.07
2023-02-16T08:08:09.369Z,7.08
2023-02-16T08:09:09.380Z,7.09
2023-02-16T08:10:09.345Z,7.13
2023-02-16T08:11:09.330Z,7.15
2023-02-16T08:12:09.325Z,7.19
2023-02-16T08:13:09.322Z,7.20
2023-02-16T08:14:09.331Z,7.23
2023-02-16T08:15:09.308Z,7.22
2023-02-16T08:16:09.373Z,7.23
2023-02-16T08:17:09.353Z,7.31
2023-02-16T08:18:09.258Z,7.35
2023-02-16T08:19:09.268Z,7.40
2023-02-16T08:20:09.235Z,7.45
2023-02-16T08:21:09.313Z,7.50
2023-02-16T08:22:09.226Z,7.55
2023-02-16T08:23:09.202Z,7.59
2023-02-16T08:24:09.227Z,7.63
2023-02-16T08:25:09.183Z,7.67
2023-02-16T08:26:09.175Z,7.69
2023-02-16T08:27:09.155Z,7.72
2023-02-16T08:28:09.167Z,7.71
2023-02-16T08:29:09.145Z,7.71
2023-02-16T08:30:09.201Z,7.67
2023-02-16T08:31:09.157Z,7.60
2023-02-16T08:32:09.155Z,7.60
2023-02-16T08:33:09.096Z,7.58
2023-02-16T08:34:09.119Z,7.52
2023-02-16T08:35:09.105Z,7.49
2023-02-16T08:36:09.068Z,7.49
2023-02-16T08:37:09.058Z,7.49
2023-02-16T08:38:09.101Z,7.45
2023-02-16T08:39:09.059Z,7.49
2023-02-16T08:40:09.026Z,7.52
2023-02-16T08:41:09.009Z,7.53
2023-02-16T08:42:09.012Z,7.56
2023-02-16T08:43:08.992Z,7.56
2023-02-16T08:44:08.979Z,7.58
2023-02-16T08:45:08.988Z,7.60
2023-02-16T08:46:09.051Z,7.63
2023-02-16T08:47:08.949Z,7.67
2023-02-16T08:48:08.936Z,7.75
2023-02-16T08:49:08.928Z,7.81
2023-02-16T08:50:08.913Z,7.85
2023-02-16T08:51:08.925Z,7.92
2023-02-16T08:52:08.884Z,7.99
2023-02-16T08:53:08.888Z,8.04
2023-02-16T08:54:08.880Z,8.10
2023-02-16T08:55:08.854Z,8.17
2023-02-16T08:56:08.846Z,8.28
2023-02-16T08:57:08.901Z,8.32
2023-02-16T08:58:08.827Z,8.37
2023-02-16T08:59:08.812Z,8.50
2023-02-16T09:00:08.805Z,8.58
2023-02-16T09:01:08.827Z,8.68
2023-02-16T09:02:08.831Z,8.72
2023-02-16T09:03:08.814Z,8.72
2023-02-16T09:04:08.763Z,8.75
2023-02-16T09:05:08.750Z,8.73
2023-02-16T09:06:08.741Z,8.79
2023-02-16T09:07:08.725Z,8.83
2023-02-16T09:08:08.721Z,8.86
2023-02-16T09:09:08.744Z,8.88
2023-02-16T09:10:08.718Z,8.87
2023-02-16T09:11:08.687Z,8.86
2023-02-16T09:12:08.673Z,8.78
2023-02-16T09:13:08.662Z,8.72
2023-02-16T09:14:08.672Z,8.68
2023-02-16T09:15:08.635Z,8.62
2023-02-16T09:16:08.640Z,8.53
2023-02-16T09:17:08.671Z,8.54
2023-02-16T09:18:08.606Z,8.51
2023-02-16T09:19:08.614Z,8.53
2023-02-16T09:20:08.607Z,8.53
2023-02-16T09:21:08.575Z,8.53
2023-02-16T09:22:08.574Z,8.54
2023-02-16T09:23:08.544Z,8.53
2023-02-16T09:24:08.564Z,8.54
2023-02-16T09:25:08.550Z,8.54
2023-02-16T09:26:08.524Z,8.57
2023-02-16T09:27:08.512Z,8.62
2023-02-16T09:28:08.493Z,8.62
2023-02-16T09:29:08.512Z,8.63
2023-02-16T09:30:08.508Z,8.60
2023-02-16T09:31:08.582Z,8.60
2023-02-16T09:32:08.456Z,8.63
2023-02-16T09:33:08.447Z,8.66
2023-02-16T09:34:08.438Z,8.71
2023-02-16T09:35:08.445Z,8.73
2023-02-16T09:36:08.415Z,8.75
2023-02-16T09:37:08.396Z,8.81
2023-02-16T09:38:08.386Z,8.86
2023-02-16T09:39:08.373Z,8.90
2023-02-16T09:40:08.368Z,8.93
2023-02-16T09:41:10.002Z,8.97
2023-02-16T09:42:08.353Z,9.02
2023-02-16T09:43:08.351Z,9.06
2023-02-16T09:44:08.341Z,9.16
2023-02-16T09:45:08.326Z,9.20
2023-02-16T09:46:08.323Z,9.21
2023-02-16T09:47:08.307Z,9.25
2023-02-16T09:48:08.277Z,9.38
2023-02-16T09:49:08.267Z,9.43
2023-02-16T09:50:08.245Z,9.45
2023-02-16T09:51:08.245Z,9.43
2023-02-16T09:52:08.245Z,9.45
2023-02-16T09:53:08.216Z,9.50
2023-02-16T09:54:08.222Z,9.53
2023-02-16T09:55:08.187Z,9.64
2023-02-16T09:56:08.216Z,9.75
2023-02-16T09:57:08.198Z,9.82
2023-02-16T09:58:08.180Z,9.86
2023-02-16T09:59:09.534Z,9.88
2023-02-16T10:00:08.134Z,9.88
2023-02-16T10:01:08.143Z,9.86
2023-02-16T10:02:08.157Z,9.82
2023-02-16T10:03:08.111Z,9.86
2023-02-16T10:04:08.088Z,9.91
2023-02-16T10:05:08.079Z,9.89
2023-02-16T10:06:08.095Z,9.96
2023-02-16T10:07:08.060Z,10.00
2023-02-16T10:08:08.086Z,10.06
2023-02-16T10:09:08.031Z,10.18
2023-02-16T10:10:08.019Z,10.21
2023-02-16T10:11:08.010Z,10.19
2023-02-16T10:12:08.001Z,10.34
2023-02-16T10:13:08.017Z,10.43
2023-02-16T10:14:07.997Z,10.51
2023-02-16T10:15:07.976Z,10.52
2023-02-16T10:16:07.975Z,10.47
2023-02-16T10:17:07.943Z,10.47
2023-02-16T10:18:07.942Z,10.44
2023-02-16T10:19:07.951Z,10.55
2023-02-16T10:20:07.918Z,10.56
2023-02-16T10:21:07.964Z,10.80
2023-02-16T10:22:07.890Z,10.88
2023-02-16T10:23:07.905Z,10.98
2023-02-16T10:24:07.870Z,10.92
2023-02-16T10:25:07.856Z,10.71
2023-02-16T10:26:07.888Z,10.73
2023-02-16T10:27:07.831Z,10.66
2023-02-16T10:28:07.836Z,10.62
2023-02-16T10:29:07.884Z,10.56
2023-02-16T10:30:07.827Z,10.42
2023-02-16T10:31:08.168Z,10.39
2023-02-16T10:32:07.823Z,10.36
2023-02-16T10:33:07.772Z,10.32
2023-02-16T10:34:07.754Z,10.25
2023-02-16T10:35:07.775Z,10.19
2023-02-16T10:36:07.741Z,10.21
2023-02-16T10:37:07.725Z,10.19
2023-02-16T10:38:07.723Z,10.22
2023-02-16T10:39:07.707Z,10.21
2023-02-16T10:40:07.698Z,10.19
2023-02-16T10:41:07.708Z,10.19
2023-02-16T10:42:07.679Z,10.19
2023-02-16T10:43:07.658Z,10.19
2023-02-16T10:44:07.646Z,10.18
2023-02-16T10:45:07.658Z,10.21
2023-02-16T10:46:07.712Z,10.24
2023-02-16T10:47:07.620Z,10.26
2023-02-16T10:48:07.610Z,10.33
2023-02-16T10:49:07.589Z,10.33
2023-02-16T10:50:07.624Z,10.40
2023-02-16T10:51:07.703Z,10.43
2023-02-16T10:52:07.568Z,10.43
2023-02-16T10:53:07.552Z,10.43
2023-02-16T10:54:07.541Z,10.44
2023-02-16T10:55:07.535Z,10.51
2023-02-16T10:56:07.541Z,10.51
2023-02-16T10:57:07.543Z,10.51
2023-02-16T10:58:07.512Z,10.47
2023-02-16T10:59:07.489Z,10.52
2023-02-16T11:00:07.512Z,10.52
2023-02-16T11:01:07.462Z,10.56
2023-02-16T11:02:07.455Z,10.62
2023-02-16T11:03:07.442Z,10.66
2023-02-16T11:04:07.485Z,10.65
2023-02-16T11:05:07.423Z,10.66
2023-02-16T11:06:07.444Z,10.70
2023-02-16T11:07:07.393Z,10.73
2023-02-16T11:08:07.396Z,10.76
2023-02-16T11:09:07.386Z,10.76
2023-02-16T11:10:07.355Z,10.81
2023-02-16T11:11:07.362Z,10.78
2023-02-16T11:12:07.363Z,10.77
2023-02-16T11:13:07.336Z,10.80
2023-02-16T11:14:09.097Z,10.83
2023-02-16T11:15:07.308Z,10.83
2023-02-16T11:16:07.310Z,10.77
2023-02-16T11:17:07.311Z,10.78
2023-02-16T11:18:07.276Z,10.81
2023-02-16T11:19:07.266Z,10.84
2023-02-16T11:20:07.250Z,10.81
2023-02-16T11:21:07.431Z,10.84
2023-02-16T11:22:07.255Z,10.91
2023-02-16T11:23:07.224Z,10.94
2023-02-16T11:24:07.209Z,10.94
2023-02-16T11:25:09.038Z,10.99
2023-02-16T11:26:07.193Z,11.07
2023-02-16T11:27:07.182Z,11.11
2023-02-16T11:28:07.179Z,11.14
2023-02-16T11:29:07.148Z,11.16
2023-02-16T11:30:07.194Z,11.13
2023-02-16T11:31:07.626Z,11.13
2023-02-16T11:32:07.142Z,11.13
2023-02-16T11:33:07.142Z,11.14
2023-02-16T11:34:07.098Z,11.20
2023-02-16T11:35:07.080Z,11.21
2023-02-16T11:36:07.071Z,11.32
2023-02-16T11:37:07.066Z,11.35
2023-02-16T11:38:07.074Z,11.36
2023-02-16T11:39:07.048Z,11.35
2023-02-16T11:40:07.029Z,11.32
2023-02-16T11:41:07.301Z,11.31
2023-02-16T11:42:06.998Z,11.28
2023-02-16T11:43:07.025Z,11.27
2023-02-16T11:44:06.976Z,11.25
2023-02-16T11:45:06.979Z,11.28
2023-02-16T11:46:07.268Z,11.31
2023-02-16T11:47:06.951Z,11.36
2023-02-16T11:48:06.943Z,11.43
2023-02-16T11:49:06.942Z,11.56
2023-02-16T11:50:06.910Z,11.67
2023-02-16T11:51:07.104Z,11.61
2023-02-16T11:52:06.881Z,11.56
2023-02-16T11:53:06.877Z,11.49
2023-02-16T11:54:06.891Z,11.44
2023-02-16T11:55:06.852Z,11.52
2023-02-16T11:56:06.839Z,11.54
2023-02-16T11:57:06.832Z,11.64
2023-02-16T11:58:06.820Z,11.74
2023-02-16T11:59:06.813Z,11.78
2023-02-16T12:00:06.825Z,11.74
2023-02-16T12:01:06.899Z,11.71
2023-02-16T12:02:06.775Z,11.65
2023-02-16T12:03:06.770Z,11.65
2023-02-16T12:04:06.801Z,11.65
2023-02-16T12:05:06.800Z,11.62
2023-02-16T12:06:06.735Z,11.65
2023-02-16T12:07:06.874Z,11.67
2023-02-16T12:08:06.738Z,11.54
2023-02-16T12:09:06.818Z,11.44
2023-02-16T12:10:06.831Z,11.32
2023-02-16T12:11:07.194Z,11.21
2023-02-16T12:12:06.674Z,11.20
2023-02-16T12:13:06.657Z,11.20
2023-02-16T12:14:06.659Z,11.20
2023-02-16T12:15:06.663Z,11.20
2023-02-16T12:16:08.692Z,11.16
2023-02-16T12:17:06.633Z,11.13
2023-02-16T12:18:06.596Z,11.11
2023-02-16T12:19:06.604Z,11.03
2023-02-16T12:20:06.606Z,11.03
2023-02-16T12:21:06.568Z,11.01
2023-02-16T12:22:06.558Z,10.94
2023-02-16T12:23:06.548Z,10.94
2023-02-16T12:24:06.533Z,10.94
2023-02-16T12:25:06.527Z,10.95
2023-02-16T12:26:06.850Z,10.95
2023-02-16T12:27:06.508Z,11.01
2023-02-16T12:28:06.509Z,11.03
2023-02-16T12:29:06.511Z,11.03
2023-02-16T12:30:06.513Z,11.03
2023-02-16T12:31:06.516Z,11.07
2023-02-16T12:32:06.456Z,11.09
2023-02-16T12:33:06.434Z,11.02
2023-02-16T12:34:06.429Z,11.03
2023-02-16T12:35:06.418Z,10.96
2023-02-16T12:36:06.784Z,10.94
2023-02-16T12:37:06.418Z,10.92
2023-02-16T12:38:06.380Z,10.91
2023-02-16T12:39:06.370Z,10.94
2023-02-16T12:40:06.353Z,10.94
2023-02-16T12:41:06.335Z,10.95
2023-02-16T12:42:06.357Z,10.96
2023-02-16T12:43:06.314Z,10.99
2023-02-16T12:44:06.551Z,10.96
2023-02-16T12:45:14.311Z,10.89
2023-02-16T12:46:06.745Z,10.84
2023-02-16T12:47:06.287Z,10.81
2023-02-16T12:48:06.274Z,10.78
2023-02-16T12:49:06.259Z,10.74
2023-02-16T12:50:06.242Z,10.73
2023-02-16T12:51:06.487Z,10.70
2023-02-16T12:52:06.248Z,10.68
2023-02-16T12:53:06.210Z,10.70
2023-02-16T12:54:06.201Z,10.66
2023-02-16T12:55:06.190Z,10.66
2023-02-16T12:56:06.602Z,10.66
2023-02-16T12:57:06.169Z,10.66
2023-02-16T12:58:06.179Z,10.68
2023-02-16T12:59:06.152Z,10.71
2023-02-16T13:00:06.133Z,10.65
2023-02-16T13:01:06.401Z,10.65
2023-02-16T13:02:06.109Z,10.63
2023-02-16T13:03:06.137Z,10.65
2023-02-16T13:04:06.114Z,10.62
2023-02-16T13:05:06.259Z,10.60
2023-02-16T13:06:06.415Z,10.63
2023-02-16T13:07:06.067Z,10.63
2023-02-16T13:08:06.049Z,10.62
2023-02-16T13:09:06.036Z,10.58
2023-02-16T13:10:06.075Z,10.58
2023-02-16T13:11:06.370Z,10.60
2023-02-16T13:12:06.008Z,10.62